Íslenskir flugvellir

Veldu flugvelli í þeirri röð sem þeir eiga að birtast og styddu á hnappinn

Uppfært síðast 16.10.2019 - kl. 05:15

SIGMET síðustu 6 klst.

Engin SIGMET skeyti bárust síðustu 6 klst.

Egilsstaðir

METAR síðustu 3 klst

TímiSkeyti
2019-10-16 05.00METAR BIEG 160500Z 08007KT 9999 -RA FEW020 BKN029 OVC034 09/05 Q1003 R04/290195 RMK WIND GAGNHEIDI 09018G31KT
2019-10-16 04.00METAR BIEG 160400Z 08007KT 9999 -RA SCT025 BKN034 OVC042 09/06 Q1003 R04/290195 RMK WIND GAGNHEIDI 09020G33KT
2019-10-16 03.00METAR BIEG 160300Z 08010KT 9999 -DZ SCT025 BKN034 OVC045 09/05 Q1003 R04/290195 RMK WIND GAGNHEIDI 09022G37KT

TAF

TAFBIEG2019-10-16 04.31Z16060609008KT 9999 -RA BKN030 OVC040 TX08/1606Z TN03/1621Z PROB40 TEMPO 1606/1610 09015G25KT

Allur vindur er réttvísandi bæði í Metar og frá sjálfvirkum veðurstöðvum




Aðrir tengdir vefir



Þetta vefsvæði byggir á Eplica